createdAt,value
2019-06-07T00:00:04.026Z,25.44
2019-06-07T00:01:03.578Z,25.45
2019-06-07T00:02:03.619Z,25.46
2019-06-07T00:03:03.650Z,25.42
2019-06-07T00:04:03.685Z,25.41
2019-06-07T00:05:03.720Z,25.44
2019-06-07T00:06:03.819Z,25.48
2019-06-07T00:07:04.087Z,25.42
2019-06-07T00:08:07.787Z,25.54
2019-06-07T00:09:03.863Z,25.46
2019-06-07T00:10:03.896Z,25.41
2019-06-07T00:11:03.955Z,25.44
2019-06-07T00:12:03.981Z,25.45
2019-06-07T00:13:04.007Z,25.46
2019-06-07T00:14:04.372Z,25.44
2019-06-07T00:15:04.085Z,25.46
2019-06-07T00:16:04.064Z,25.44
2019-06-07T00:17:04.142Z,25.39
2019-06-07T00:18:04.175Z,25.45
2019-06-07T00:19:04.211Z,25.41
2019-06-07T00:20:04.201Z,25.41
2019-06-07T00:21:04.582Z,25.35
2019-06-07T00:22:17.526Z,25.42
2019-06-07T00:23:04.350Z,25.38
2019-06-07T00:24:04.375Z,25.42
2019-06-07T00:25:04.438Z,25.39
2019-06-07T00:26:04.465Z,25.44
2019-06-07T00:27:04.493Z,25.39
2019-06-07T00:28:04.829Z,25.42
2019-06-07T00:29:04.552Z,25.34
2019-06-07T00:30:29.815Z,25.35
2019-06-07T00:31:04.573Z,25.34
2019-06-07T00:32:04.664Z,25.35
2019-06-07T00:33:04.713Z,25.35
2019-06-07T00:34:04.745Z,25.23
2019-06-07T00:35:05.080Z,25.35
2019-06-07T00:36:04.807Z,25.23
2019-06-07T00:37:04.831Z,25.22
2019-06-07T00:38:04.889Z,25.19
2019-06-07T00:39:04.917Z,25.19
2019-06-07T00:40:13.958Z,25.34
2019-06-07T00:41:04.976Z,25.26
2019-06-07T00:42:05.315Z,25.24
2019-06-07T00:43:05.108Z,25.20
2019-06-07T00:44:05.088Z,25.26
2019-06-07T00:45:05.115Z,25.29
2019-06-07T00:46:05.157Z,25.26
2019-06-07T00:47:05.188Z,25.26
2019-06-07T00:48:05.311Z,25.20
2019-06-07T00:49:05.551Z,25.17
2019-06-07T00:50:05.287Z,25.14
2019-06-07T00:51:05.315Z,25.19
2019-06-07T00:52:05.358Z,25.12
2019-06-07T00:53:15.439Z,25.17
2019-06-07T00:54:05.423Z,25.11
2019-06-07T00:55:05.757Z,25.19
2019-06-07T00:56:05.495Z,25.14
2019-06-07T00:57:05.524Z,25.12
2019-06-07T00:58:05.570Z,25.11
2019-06-07T00:59:11.265Z,25.11
2019-06-07T01:00:05.635Z,25.11
2019-06-07T01:01:05.972Z,25.12
2019-06-07T01:02:05.714Z,25.14
2019-06-07T01:03:05.734Z,25.08
2019-06-07T01:04:05.766Z,25.09
2019-06-07T01:05:05.822Z,24.99
2019-06-07T01:06:05.844Z,25.02
2019-06-07T01:07:06.168Z,25.11
2019-06-07T01:08:05.906Z,25.11
2019-06-07T01:09:05.951Z,25.07
2019-06-07T01:10:05.993Z,25.05
2019-06-07T01:11:06.034Z,25.09
2019-06-07T01:12:06.047Z,25.02
2019-06-07T01:13:06.082Z,25.04
2019-06-07T01:14:06.418Z,24.99
2019-06-07T01:15:06.146Z,25.05
2019-06-07T01:16:06.182Z,25.02
2019-06-07T01:17:22.751Z,25.02
2019-06-07T01:18:37.716Z,25.05
2019-06-07T01:19:06.309Z,25.02
2019-06-07T01:20:06.321Z,24.98
2019-06-07T01:21:06.649Z,24.94
2019-06-07T01:22:06.390Z,24.97
2019-06-07T01:23:51.940Z,25.01
2019-06-07T01:24:12.551Z,24.94
2019-06-07T01:25:06.495Z,24.99
2019-06-07T01:26:06.521Z,24.99
2019-06-07T01:27:06.660Z,24.94
2019-06-07T01:28:06.899Z,24.99
2019-06-07T01:29:06.629Z,24.97
2019-06-07T01:30:06.764Z,25.02
2019-06-07T01:31:06.705Z,25.01
2019-06-07T01:32:06.732Z,24.94
2019-06-07T01:33:06.775Z,24.89
2019-06-07T01:34:06.809Z,24.92
2019-06-07T01:35:07.170Z,24.92
2019-06-07T01:36:06.885Z,24.89
2019-06-07T01:37:06.917Z,24.87
2019-06-07T01:38:06.945Z,24.92
2019-06-07T01:39:06.978Z,24.87
2019-06-07T01:40:07.015Z,24.89
2019-06-07T01:41:07.141Z,24.86
2019-06-07T01:42:07.380Z,24.84
2019-06-07T01:43:07.109Z,24.87
2019-06-07T01:44:07.149Z,24.82
2019-06-07T01:45:07.491Z,24.80
2019-06-07T01:46:07.220Z,24.84
2019-06-07T01:47:07.264Z,24.80
2019-06-07T01:48:07.290Z,24.84
2019-06-07T01:49:07.614Z,24.87
2019-06-07T01:50:07.359Z,24.83
2019-06-07T01:51:07.387Z,24.90
2019-06-07T01:52:07.422Z,24.89
2019-06-07T01:53:07.457Z,24.74
2019-06-07T01:54:49.463Z,24.82
2019-06-07T01:55:07.527Z,24.77
2019-06-07T01:56:08.162Z,24.75
2019-06-07T01:57:07.600Z,24.83
2019-06-07T01:58:07.625Z,24.77
2019-06-07T01:59:07.665Z,24.70
2019-06-07T02:00:07.712Z,24.74
2019-06-07T02:01:07.747Z,24.71
2019-06-07T02:02:07.767Z,24.70
2019-06-07T02:03:08.099Z,24.74
2019-06-07T02:04:07.844Z,24.80
2019-06-07T02:05:07.879Z,24.70
2019-06-07T02:06:07.911Z,24.75
2019-06-07T02:07:07.941Z,24.71
2019-06-07T02:08:07.978Z,24.70
2019-06-07T02:09:08.012Z,24.68
2019-06-07T02:10:08.355Z,24.67
2019-06-07T02:11:08.080Z,24.63
2019-06-07T02:12:25.086Z,24.59
2019-06-07T02:13:08.144Z,24.60
2019-06-07T02:14:08.179Z,24.61
2019-06-07T02:15:08.212Z,24.61
2019-06-07T02:16:08.251Z,24.61
2019-06-07T02:17:08.582Z,24.60
2019-06-07T02:18:08.315Z,24.56
2019-06-07T02:19:08.461Z,24.63
2019-06-07T02:20:08.377Z,24.59
2019-06-07T02:21:08.416Z,24.60
2019-06-07T02:22:08.450Z,24.60
2019-06-07T02:23:08.487Z,24.59
2019-06-07T02:24:09.116Z,24.60
2019-06-07T02:26:08.605Z,24.60
2019-06-07T02:27:08.731Z,24.59
2019-06-07T02:28:27.610Z,24.59
2019-06-07T02:29:08.693Z,24.56
2019-06-07T02:31:11.107Z,24.55
2019-06-07T02:32:09.104Z,24.51
2019-06-07T02:33:08.830Z,24.61
2019-06-07T02:34:08.884Z,24.56
2019-06-07T02:35:08.898Z,24.49
2019-06-07T02:36:08.942Z,24.59
2019-06-07T02:37:08.965Z,24.46
2019-06-07T02:38:09.110Z,24.51
2019-06-07T02:39:09.333Z,24.49
2019-06-07T02:40:09.078Z,24.45
2019-06-07T02:41:09.102Z,24.51
2019-06-07T02:42:09.174Z,24.51
2019-06-07T02:43:09.175Z,24.56
2019-06-07T02:44:09.202Z,24.49
2019-06-07T02:45:10.686Z,24.49
2019-06-07T02:46:25.296Z,24.51
2019-06-07T02:48:09.343Z,24.48
2019-06-07T02:50:09.406Z,24.45
2019-06-07T02:51:09.444Z,24.45
2019-06-07T02:52:09.477Z,24.49
2019-06-07T02:53:09.813Z,24.48
2019-06-07T02:54:09.546Z,24.48
2019-06-07T02:55:09.724Z,24.46
2019-06-07T02:56:37.623Z,24.45
2019-06-07T02:59:09.717Z,24.49
2019-06-07T03:00:40.446Z,24.42
2019-06-07T03:01:10.140Z,24.46
2019-06-07T03:02:09.820Z,24.42
2019-06-07T03:03:09.851Z,24.46
2019-06-07T03:04:09.909Z,24.46
2019-06-07T03:05:09.928Z,24.42
2019-06-07T03:06:10.260Z,24.41
2019-06-07T03:07:10.021Z,24.41
2019-06-07T03:08:10.120Z,24.44
2019-06-07T03:09:10.050Z,24.39
2019-06-07T03:10:10.099Z,24.37
2019-06-07T03:11:10.121Z,24.37
2019-06-07T03:13:10.642Z,24.36
2019-06-07T03:14:10.221Z,24.44
2019-06-07T03:15:10.265Z,24.36
2019-06-07T03:16:10.354Z,24.37
2019-06-07T03:17:10.331Z,24.33
2019-06-07T03:18:10.466Z,24.33
2019-06-07T03:20:10.828Z,24.36
2019-06-07T03:21:10.465Z,24.30
2019-06-07T03:22:10.497Z,24.33
2019-06-07T03:23:10.540Z,24.29
2019-06-07T03:24:10.566Z,24.36
2019-06-07T03:25:10.604Z,24.34
2019-06-07T03:26:11.057Z,24.36
2019-06-07T03:27:33.982Z,24.33
2019-06-07T03:28:10.847Z,24.36
2019-06-07T03:30:36.143Z,24.31
2019-06-07T03:31:10.808Z,24.33
2019-06-07T03:32:11.140Z,24.29
2019-06-07T03:33:10.873Z,24.31
2019-06-07T03:34:10.906Z,24.37
2019-06-07T03:35:10.935Z,24.36
2019-06-07T03:36:23.323Z,24.34
2019-06-07T03:37:11.005Z,24.30
2019-06-07T03:38:11.059Z,24.30
2019-06-07T03:39:11.388Z,24.36
2019-06-07T03:40:11.116Z,24.30
2019-06-07T03:41:11.148Z,24.27
2019-06-07T03:42:11.878Z,24.26
2019-06-07T03:43:11.248Z,24.27
2019-06-07T03:44:11.246Z,24.30
2019-06-07T03:45:11.313Z,24.23
2019-06-07T03:46:11.628Z,24.31
2019-06-07T03:47:11.344Z,24.23
2019-06-07T03:48:11.390Z,24.27
2019-06-07T03:50:11.446Z,24.26
2019-06-07T03:51:23.973Z,24.23
2019-06-07T03:52:11.516Z,24.23
2019-06-07T03:53:11.889Z,24.33
2019-06-07T03:54:11.588Z,24.23
2019-06-07T03:55:11.619Z,24.30
2019-06-07T03:56:12.593Z,24.23
2019-06-07T03:57:11.682Z,24.21
2019-06-07T03:59:11.754Z,24.21
2019-06-07T04:00:11.799Z,24.18
2019-06-07T04:01:11.818Z,24.21
2019-06-07T04:02:11.856Z,24.30
2019-06-07T04:03:32.263Z,24.21
2019-06-07T04:04:11.926Z,24.29
2019-06-07T04:05:12.268Z,24.21
2019-06-07T04:06:11.986Z,24.27
2019-06-07T04:07:12.028Z,24.23
2019-06-07T04:08:12.066Z,24.21
2019-06-07T04:09:12.098Z,24.19
2019-06-07T04:10:12.130Z,24.24
2019-06-07T04:11:12.833Z,24.21
2019-06-07T04:12:12.189Z,24.30
2019-06-07T04:13:12.251Z,24.23
2019-06-07T04:14:12.265Z,24.24
2019-06-07T04:15:12.310Z,24.29
2019-06-07T04:16:12.382Z,24.30
2019-06-07T04:18:12.406Z,24.26
2019-06-07T04:19:12.436Z,24.24
2019-06-07T04:20:12.467Z,24.30
2019-06-07T04:21:12.502Z,24.29
2019-06-07T04:22:12.563Z,24.21
2019-06-07T04:23:27.890Z,24.29
2019-06-07T04:24:12.704Z,24.26
2019-06-07T04:25:12.941Z,24.31
2019-06-07T04:26:12.770Z,24.26
2019-06-07T04:27:12.697Z,24.31
2019-06-07T04:28:12.755Z,24.24
2019-06-07T04:30:12.812Z,24.31
2019-06-07T04:31:12.786Z,24.31
2019-06-07T04:32:12.881Z,24.36
2019-06-07T04:34:12.943Z,24.29
2019-06-07T04:35:12.986Z,24.33
2019-06-07T04:36:13.010Z,24.34
2019-06-07T04:37:13.045Z,24.30
2019-06-07T04:38:13.075Z,24.36
2019-06-07T04:39:13.176Z,24.31
2019-06-07T04:40:13.144Z,24.34
2019-06-07T04:42:13.215Z,24.36
2019-06-07T04:43:13.549Z,24.34
2019-06-07T04:44:13.278Z,24.30
2019-06-07T04:45:32.440Z,24.33
2019-06-07T04:46:13.349Z,24.36
2019-06-07T04:47:13.379Z,24.37
2019-06-07T04:48:13.416Z,24.36
2019-06-07T04:49:13.454Z,24.37
2019-06-07T04:50:13.785Z,24.31
2019-06-07T04:51:13.538Z,24.37
2019-06-07T04:52:13.554Z,24.37
2019-06-07T04:53:13.588Z,24.37
2019-06-07T04:56:13.691Z,24.34
2019-06-07T04:57:13.724Z,24.36
2019-06-07T04:58:13.927Z,24.37
2019-06-07T04:59:13.805Z,24.33
2019-06-07T05:00:46.600Z,24.49
2019-06-07T05:01:26.881Z,24.39
2019-06-07T05:02:13.996Z,24.37
2019-06-07T05:03:14.227Z,24.42
2019-06-07T05:04:13.973Z,24.46
2019-06-07T05:05:13.998Z,24.41
2019-06-07T05:06:14.161Z,24.42
2019-06-07T05:07:14.061Z,24.42
2019-06-07T05:09:14.129Z,24.48
2019-06-07T05:10:14.494Z,24.46
2019-06-07T05:11:14.199Z,24.46
2019-06-07T05:13:14.314Z,24.49
2019-06-07T05:14:14.318Z,24.42
2019-06-07T05:15:14.398Z,24.49
2019-06-07T05:16:14.473Z,24.51
2019-06-07T05:17:14.402Z,24.45
2019-06-07T05:19:14.473Z,24.52
2019-06-07T05:20:16.039Z,24.44
2019-06-07T05:21:14.551Z,24.52
2019-06-07T05:22:14.905Z,24.60
2019-06-07T05:24:14.652Z,24.63
2019-06-07T05:25:14.712Z,24.56
2019-06-07T05:26:14.722Z,24.61
2019-06-07T05:27:14.749Z,24.55
2019-06-07T05:28:14.785Z,24.60
2019-06-07T05:29:14.825Z,24.56
2019-06-07T05:30:51.002Z,24.59
2019-06-07T05:31:14.891Z,24.55
2019-06-07T05:32:14.948Z,24.56
2019-06-07T05:33:14.944Z,24.56
2019-06-07T05:34:15.014Z,24.60
2019-06-07T05:35:15.314Z,24.60
2019-06-07T05:36:15.060Z,24.56
2019-06-07T05:37:15.099Z,24.66
2019-06-07T05:39:15.172Z,24.63
2019-06-07T05:40:15.183Z,24.63
2019-06-07T05:41:15.225Z,24.63
2019-06-07T05:42:15.559Z,24.66
2019-06-07T05:43:15.294Z,24.64
2019-06-07T05:44:15.397Z,24.61
2019-06-07T05:45:15.359Z,24.66
2019-06-07T05:46:15.413Z,24.61
2019-06-07T05:47:15.458Z,24.61
2019-06-07T05:48:15.589Z,24.59
2019-06-07T05:49:15.802Z,24.56
2019-06-07T05:50:38.379Z,24.56
2019-06-07T05:51:15.664Z,24.60
2019-06-07T05:52:15.600Z,24.68
2019-06-07T05:53:15.717Z,24.70
2019-06-07T05:54:15.683Z,24.70
2019-06-07T05:55:15.709Z,24.71
2019-06-07T05:56:16.490Z,24.75
2019-06-07T05:57:15.774Z,24.70
2019-06-07T05:58:15.821Z,24.74
2019-06-07T05:59:16.035Z,24.79
2019-06-07T06:00:15.873Z,24.70
2019-06-07T06:01:47.961Z,24.74
2019-06-07T06:02:22.512Z,24.77
2019-06-07T06:03:15.976Z,24.79
2019-06-07T06:04:16.010Z,24.87
2019-06-07T06:05:32.691Z,24.77
2019-06-07T06:06:16.089Z,24.92
2019-06-07T06:07:16.414Z,24.86
2019-06-07T06:08:16.146Z,24.87
2019-06-07T06:09:16.491Z,24.87
2019-06-07T06:10:16.216Z,24.90
2019-06-07T06:11:16.353Z,24.94
2019-06-07T06:13:16.334Z,24.94
2019-06-07T06:14:16.356Z,24.99
2019-06-07T06:15:16.737Z,25.04
2019-06-07T06:16:16.423Z,25.05
2019-06-07T06:17:16.477Z,25.02
2019-06-07T06:18:16.509Z,25.04
2019-06-07T06:19:16.857Z,25.09
2019-06-07T06:21:19.983Z,25.11
2019-06-07T06:22:16.925Z,25.22
2019-06-07T06:23:16.662Z,25.19
2019-06-07T06:24:16.694Z,25.19
2019-06-07T06:25:31.724Z,25.20
2019-06-07T06:26:16.771Z,25.27
2019-06-07T06:28:02.101Z,25.20
2019-06-07T06:28:17.138Z,25.20
2019-06-07T06:29:16.869Z,25.23
2019-06-07T06:30:16.903Z,25.27
2019-06-07T06:31:16.942Z,25.36
2019-06-07T06:32:41.104Z,25.31
2019-06-07T06:33:32.919Z,25.31
2019-06-07T06:34:17.061Z,25.46
2019-06-07T06:36:17.133Z,25.41
2019-06-07T06:37:17.146Z,25.36
2019-06-07T06:38:17.198Z,25.44
2019-06-07T06:39:17.262Z,25.46
2019-06-07T06:40:17.593Z,25.46
2019-06-07T06:41:17.296Z,25.42
2019-06-07T06:42:17.319Z,25.45
2019-06-07T06:43:17.364Z,25.51
2019-06-07T06:44:17.402Z,25.45
2019-06-07T06:45:17.434Z,25.49
2019-06-07T06:46:37.549Z,25.49
2019-06-07T06:47:17.809Z,25.51
2019-06-07T06:48:17.588Z,25.51
2019-06-07T06:49:17.572Z,25.54
2019-06-07T06:50:17.620Z,25.56
2019-06-07T06:51:17.643Z,25.64
2019-06-07T06:52:17.680Z,25.60
2019-06-07T06:53:17.724Z,25.63
2019-06-07T06:54:39.419Z,25.72
2019-06-07T06:55:17.782Z,25.64
2019-06-07T06:56:18.118Z,25.61
2019-06-07T06:58:17.887Z,25.67
2019-06-07T07:00:17.958Z,25.69
2019-06-07T07:01:17.990Z,25.66
2019-06-07T07:02:18.033Z,25.67
2019-06-07T07:03:55.948Z,25.76
2019-06-07T07:04:18.094Z,25.74
2019-06-07T07:05:18.130Z,25.81
2019-06-07T07:06:26.082Z,25.74
2019-06-07T07:07:18.200Z,25.85
2019-06-07T07:08:18.240Z,25.75
2019-06-07T07:09:18.288Z,25.78
2019-06-07T07:10:18.317Z,25.81
2019-06-07T07:11:23.349Z,25.81
2019-06-07T07:12:18.708Z,25.79
2019-06-07T07:13:18.508Z,25.86
2019-06-07T07:14:18.473Z,25.89
2019-06-07T07:15:18.491Z,25.97
2019-06-07T07:16:18.515Z,25.90
2019-06-07T07:17:18.619Z,25.91
2019-06-07T07:18:18.885Z,25.98
2019-06-07T07:19:18.629Z,25.89
2019-06-07T07:20:18.677Z,25.85
2019-06-07T07:21:18.697Z,26.01
2019-06-07T07:22:18.744Z,25.97
2019-06-07T07:23:18.817Z,26.00
2019-06-07T07:24:21.974Z,26.00
2019-06-07T07:25:19.135Z,25.97
2019-06-07T07:26:19.025Z,26.00
2019-06-07T07:27:18.900Z,26.01
2019-06-07T07:28:18.942Z,26.01
2019-06-07T07:29:18.988Z,26.01
2019-06-07T07:31:19.053Z,26.01
2019-06-07T07:32:19.078Z,26.03
2019-06-07T07:33:19.126Z,26.04
2019-06-07T07:34:33.972Z,26.04
2019-06-07T07:35:19.189Z,26.12
2019-06-07T07:36:38.190Z,26.06
2019-06-07T07:37:19.361Z,26.09
2019-06-07T07:38:19.620Z,26.08
2019-06-07T07:39:19.333Z,26.13
2019-06-07T07:40:56.302Z,26.16
2019-06-07T07:41:19.425Z,26.12
2019-06-07T07:42:21.629Z,26.20
2019-06-07T07:43:19.530Z,26.13
2019-06-07T07:44:19.514Z,26.20
2019-06-07T07:45:19.859Z,26.20
2019-06-07T07:46:28.942Z,26.23
2019-06-07T07:47:19.715Z,26.20
2019-06-07T07:49:19.688Z,26.23
2019-06-07T07:50:19.719Z,26.23
2019-06-07T07:51:19.755Z,26.24
2019-06-07T07:52:19.796Z,26.19
2019-06-07T07:53:19.929Z,26.21
2019-06-07T07:54:19.880Z,26.32
2019-06-07T07:55:19.983Z,26.31
2019-06-07T07:56:19.930Z,26.23
2019-06-07T07:57:19.970Z,26.31
2019-06-07T07:58:20.070Z,26.20
2019-06-07T07:59:20.142Z,26.29
2019-06-07T08:00:50.240Z,26.29
2019-06-07T08:01:20.485Z,26.19
2019-06-07T08:02:20.154Z,26.23
2019-06-07T08:03:20.197Z,26.24
2019-06-07T08:04:39.838Z,26.36
2019-06-07T08:05:29.030Z,26.32
2019-06-07T08:06:20.281Z,26.31
2019-06-07T08:07:20.330Z,26.28
2019-06-07T08:08:20.356Z,26.34
2019-06-07T08:09:20.398Z,26.34
2019-06-07T08:10:20.441Z,26.24
2019-06-07T08:11:20.478Z,26.35
2019-06-07T08:12:20.494Z,26.36
2019-06-07T08:13:25.853Z,26.35
2019-06-07T08:14:20.574Z,26.44
2019-06-07T08:15:20.619Z,26.31
2019-06-07T08:16:21.010Z,26.36
2019-06-07T08:17:20.676Z,26.31
2019-06-07T08:18:20.809Z,26.35
2019-06-07T08:19:20.749Z,26.39
2019-06-07T08:20:20.784Z,26.34
2019-06-07T08:21:26.399Z,26.44
2019-06-07T08:22:20.867Z,26.47
2019-06-07T08:23:21.193Z,26.39
2019-06-07T08:24:20.938Z,26.39
2019-06-07T08:25:20.960Z,26.39
2019-06-07T08:26:21.012Z,26.44
2019-06-07T08:27:26.518Z,26.44
2019-06-07T08:28:21.084Z,26.47
2019-06-07T08:29:21.113Z,26.47
2019-06-07T08:30:47.823Z,26.50
2019-06-07T08:31:21.178Z,26.47
2019-06-07T08:33:26.478Z,26.38
2019-06-07T08:36:03.211Z,26.49
2019-06-07T08:36:40.395Z,26.47
2019-06-07T08:37:21.404Z,26.60
2019-06-07T08:38:27.606Z,26.50
2019-06-07T08:39:21.462Z,26.53
2019-06-07T08:40:21.565Z,26.51
2019-06-07T08:41:21.633Z,26.56
2019-06-07T08:42:36.019Z,26.60
2019-06-07T08:43:21.900Z,26.57
2019-06-07T08:44:25.526Z,26.51
2019-06-07T08:45:21.675Z,26.53
2019-06-07T08:46:21.711Z,26.56
2019-06-07T08:47:21.758Z,26.47
2019-06-07T08:48:27.744Z,26.60
2019-06-07T08:49:21.925Z,26.60
2019-06-07T08:51:21.894Z,26.59
2019-06-07T08:52:22.341Z,26.61
2019-06-07T08:53:21.969Z,26.64
2019-06-07T08:54:23.192Z,26.61
2019-06-07T08:55:22.036Z,26.57
2019-06-07T08:56:22.073Z,26.64
2019-06-07T08:57:22.414Z,26.64
2019-06-07T08:58:22.140Z,26.59
2019-06-07T09:01:22.252Z,26.64
2019-06-07T09:02:24.102Z,26.66
2019-06-07T09:03:22.614Z,26.64
2019-06-07T09:04:22.649Z,26.73
2019-06-07T09:05:22.387Z,26.71
2019-06-07T09:07:22.496Z,26.71
2019-06-07T09:08:29.732Z,26.72
2019-06-07T09:09:22.850Z,26.72
2019-06-07T09:10:22.579Z,26.71
2019-06-07T09:11:22.602Z,26.71
2019-06-07T09:12:22.637Z,26.73
2019-06-07T09:13:22.799Z,26.73
2019-06-07T09:14:22.711Z,26.76
2019-06-07T09:15:24.297Z,26.69
2019-06-07T09:16:22.802Z,26.69
2019-06-07T09:17:22.824Z,26.78
2019-06-07T09:18:41.354Z,26.72
2019-06-07T09:19:22.893Z,26.79
2019-06-07T09:20:36.413Z,26.69
2019-06-07T09:21:22.958Z,26.87
2019-06-07T09:22:23.001Z,26.84
2019-06-07T09:23:23.035Z,26.71
2019-06-07T09:25:23.110Z,26.84
2019-06-07T09:26:23.143Z,26.78
2019-06-07T09:27:23.185Z,26.86
2019-06-07T09:28:23.519Z,26.79
2019-06-07T09:29:23.249Z,26.88
2019-06-07T09:30:23.286Z,26.88
2019-06-07T09:31:23.337Z,26.90
2019-06-07T09:32:23.360Z,26.88
2019-06-07T09:33:23.393Z,26.87
2019-06-07T09:34:23.559Z,26.87
2019-06-07T09:35:23.776Z,26.83
2019-06-07T09:36:23.507Z,26.86
2019-06-07T09:38:03.573Z,26.90
2019-06-07T09:38:25.981Z,26.93
2019-06-07T09:39:23.612Z,26.86
2019-06-07T09:40:27.579Z,26.83
2019-06-07T09:41:42.650Z,26.83
2019-06-07T09:42:24.045Z,26.90
2019-06-07T09:44:26.191Z,26.83
2019-06-07T09:45:23.826Z,26.91
2019-06-07T09:46:23.869Z,26.86
2019-06-07T09:49:09.116Z,26.91
2019-06-07T09:49:31.879Z,26.94
2019-06-07T09:50:24.014Z,26.84
2019-06-07T09:51:24.046Z,26.90
2019-06-07T09:52:24.080Z,26.97
2019-06-07T09:53:24.139Z,26.93
2019-06-07T09:55:03.313Z,26.97
2019-06-07T09:55:25.302Z,26.88
2019-06-07T09:56:24.320Z,26.93
2019-06-07T09:57:24.261Z,26.98
2019-06-07T09:58:51.026Z,26.90
2019-06-07T09:59:24.346Z,27.01
2019-06-07T10:00:42.340Z,26.97
2019-06-07T10:01:24.397Z,26.97
2019-06-07T10:02:24.433Z,27.01
2019-06-07T10:03:24.569Z,27.01
2019-06-07T10:04:31.266Z,26.93
2019-06-07T10:05:24.562Z,26.96
2019-06-07T10:06:24.580Z,26.97
2019-06-07T10:07:31.703Z,26.98
2019-06-07T10:09:42.472Z,26.91
2019-06-07T10:10:38.812Z,27.02
2019-06-07T10:11:24.773Z,27.01
2019-06-07T10:12:24.808Z,27.01
2019-06-07T10:13:25.141Z,26.97
2019-06-07T10:14:24.879Z,26.96
2019-06-07T10:15:24.919Z,27.05
2019-06-07T10:16:24.942Z,26.96
2019-06-07T10:18:25.014Z,27.01
2019-06-07T10:19:25.122Z,26.97
2019-06-07T10:20:25.396Z,26.97
2019-06-07T10:21:25.126Z,27.01
2019-06-07T10:22:25.163Z,27.11
2019-06-07T10:23:25.284Z,26.98
2019-06-07T10:24:25.234Z,27.06
2019-06-07T10:25:25.295Z,27.05
2019-06-07T10:26:25.306Z,27.05
2019-06-07T10:27:25.644Z,27.02
2019-06-07T10:28:25.381Z,27.06
2019-06-07T10:29:25.413Z,27.05
2019-06-07T10:30:26.129Z,27.03
2019-06-07T10:31:25.504Z,27.09
2019-06-07T10:33:27.208Z,27.01
2019-06-07T10:34:26.313Z,27.09
2019-06-07T10:35:25.868Z,27.08
2019-06-07T10:36:25.674Z,27.09
2019-06-07T10:38:25.742Z,27.12
2019-06-07T10:39:25.775Z,27.05
2019-06-07T10:40:25.809Z,27.08
2019-06-07T10:41:26.246Z,27.13
2019-06-07T10:42:25.991Z,27.12
2019-06-07T10:43:25.922Z,27.13
2019-06-07T10:44:26.061Z,27.09
2019-06-07T10:45:25.994Z,27.06
2019-06-07T10:46:26.032Z,27.15
2019-06-07T10:47:26.300Z,27.20
2019-06-07T10:48:26.107Z,27.11
2019-06-07T10:49:26.151Z,27.09
2019-06-07T10:50:26.278Z,27.13
2019-06-07T10:51:26.246Z,27.09
2019-06-07T10:52:26.246Z,27.18
2019-06-07T10:53:26.285Z,27.12
2019-06-07T10:54:30.569Z,27.18
2019-06-07T10:55:26.363Z,27.13
2019-06-07T10:59:11.897Z,27.16
2019-06-07T11:00:11.686Z,27.20
2019-06-07T11:01:12.842Z,27.23
2019-06-07T11:02:11.918Z,27.23
2019-06-07T11:03:11.845Z,27.13
2019-06-07T11:04:11.737Z,27.13
2019-06-07T11:05:12.301Z,27.21
2019-06-07T11:06:12.148Z,27.16
2019-06-07T11:07:12.073Z,27.18
2019-06-07T11:08:13.085Z,27.27
2019-06-07T11:09:12.049Z,27.24
2019-06-07T11:10:16.784Z,27.27
2019-06-07T11:11:12.279Z,27.20
2019-06-07T11:12:12.509Z,27.23
2019-06-07T11:13:18.066Z,27.23
2019-06-07T11:14:12.716Z,27.15
2019-06-07T11:15:12.955Z,27.21
2019-06-07T11:17:56.435Z,27.25
2019-06-07T11:18:56.480Z,27.25
2019-06-07T11:19:56.519Z,27.31
2019-06-07T11:20:56.553Z,27.30
2019-06-07T11:21:56.585Z,27.28
2019-06-07T11:22:56.572Z,27.30
2019-06-07T11:23:56.930Z,27.30
2019-06-07T11:24:56.696Z,27.33
2019-06-07T11:25:56.795Z,27.30
2019-06-07T11:27:56.778Z,27.33
2019-06-07T11:28:56.846Z,27.30
2019-06-07T11:29:57.181Z,27.35
2019-06-07T11:30:56.912Z,27.34
2019-06-07T11:31:56.953Z,27.27
2019-06-07T11:32:56.992Z,27.35
2019-06-07T11:33:57.025Z,27.24
2019-06-07T11:34:57.148Z,27.33
2019-06-07T11:35:57.415Z,27.25
2019-06-07T11:36:57.144Z,27.28
2019-06-07T11:38:57.222Z,27.43
2019-06-07T11:39:57.264Z,27.38
2019-06-07T11:40:57.287Z,27.39
2019-06-07T11:42:37.490Z,27.34
2019-06-07T11:44:56.335Z,27.42
2019-06-07T11:44:57.514Z,27.42
2019-06-07T11:45:57.468Z,27.45
2019-06-07T11:46:57.518Z,27.40
2019-06-07T11:47:59.870Z,27.48
2019-06-07T11:49:57.616Z,27.45
2019-06-07T11:50:57.667Z,27.40
2019-06-07T11:51:57.696Z,27.45
2019-06-07T11:52:57.728Z,27.38
2019-06-07T11:53:57.756Z,27.35
2019-06-07T11:54:59.158Z,27.42
2019-06-07T11:55:57.842Z,27.46
2019-06-07T11:56:57.901Z,27.46
2019-06-07T11:57:57.913Z,27.45
2019-06-07T11:58:57.963Z,27.48
2019-06-07T11:59:57.982Z,27.50
2019-06-07T12:00:58.366Z,27.55
2019-06-07T12:01:58.062Z,27.52
2019-06-07T12:02:58.094Z,27.55
2019-06-07T12:03:58.927Z,27.61
2019-06-07T12:05:58.224Z,27.52
2019-06-07T12:06:58.603Z,27.52
2019-06-07T12:07:58.281Z,27.58
2019-06-07T12:08:58.319Z,27.59
2019-06-07T12:10:58.386Z,27.61
2019-06-07T12:11:58.426Z,27.66
2019-06-07T12:12:58.782Z,27.61
2019-06-07T12:13:58.520Z,27.65
2019-06-07T12:14:58.540Z,27.63
2019-06-07T12:15:58.577Z,27.59
2019-06-07T12:17:58.657Z,27.71
2019-06-07T12:18:58.688Z,27.63
2019-06-07T12:19:59.117Z,27.66
2019-06-07T12:20:58.789Z,27.65
2019-06-07T12:21:58.838Z,27.65
2019-06-07T12:22:58.999Z,27.66
2019-06-07T12:23:58.944Z,27.71
2019-06-07T12:24:58.921Z,27.68
2019-06-07T12:25:58.984Z,27.66
2019-06-07T12:26:59.357Z,27.71
2019-06-07T12:27:59.149Z,27.69
2019-06-07T12:28:59.124Z,27.71
2019-06-07T12:29:59.144Z,27.72
2019-06-07T12:30:59.166Z,27.65
2019-06-07T12:31:59.193Z,27.74
2019-06-07T12:32:59.256Z,27.74
2019-06-07T12:34:59.603Z,27.63
2019-06-07T12:35:59.350Z,27.68
2019-06-07T12:36:59.416Z,27.69
2019-06-07T12:37:59.419Z,27.71
2019-06-07T12:38:59.461Z,27.68
2019-06-07T12:39:59.533Z,27.66
2019-06-07T12:40:59.523Z,27.77
2019-06-07T12:41:59.881Z,27.68
2019-06-07T12:42:59.646Z,27.72
2019-06-07T12:43:59.670Z,27.72
2019-06-07T12:44:59.673Z,27.74
2019-06-07T12:45:59.709Z,27.74
2019-06-07T12:46:59.764Z,27.71
2019-06-07T12:47:59.795Z,27.66
2019-06-07T12:49:00.199Z,27.63
2019-06-07T12:49:59.872Z,27.72
2019-06-07T12:50:59.904Z,27.69
2019-06-07T12:51:59.927Z,27.74
2019-06-07T12:53:00.047Z,27.72
2019-06-07T12:54:00.018Z,27.77
2019-06-07T12:55:00.042Z,27.77
2019-06-07T12:56:00.515Z,27.71
2019-06-07T12:57:00.149Z,27.78
2019-06-07T12:58:00.165Z,27.76
2019-06-07T12:59:00.219Z,27.76
2019-06-07T13:00:00.253Z,27.88
2019-06-07T13:01:00.308Z,27.86
2019-06-07T13:02:02.457Z,27.87
2019-06-07T13:03:00.731Z,27.80
2019-06-07T13:04:00.418Z,27.87
2019-06-07T13:05:04.535Z,27.93
2019-06-07T13:06:00.505Z,27.90
2019-06-07T13:07:00.515Z,27.93
2019-06-07T13:08:00.551Z,27.96
2019-06-07T13:09:00.622Z,27.98
2019-06-07T13:10:00.988Z,28.03
2019-06-07T13:11:14.277Z,28.08
2019-06-07T13:12:00.715Z,28.06
2019-06-07T13:13:00.757Z,28.05
2019-06-07T13:14:00.784Z,28.14
2019-06-07T13:15:00.814Z,28.20
2019-06-07T13:16:00.843Z,28.32
2019-06-07T13:17:00.890Z,28.42
2019-06-07T13:18:00.931Z,28.46
2019-06-07T13:19:00.962Z,28.40
2019-06-07T13:20:01.073Z,28.42
2019-06-07T13:21:01.048Z,28.45
2019-06-07T13:22:01.100Z,28.54
2019-06-07T13:23:01.509Z,28.67
2019-06-07T13:24:01.174Z,28.82
2019-06-07T13:25:01.304Z,28.83
2019-06-07T13:26:01.437Z,28.87
2019-06-07T13:27:01.662Z,28.94
2019-06-07T13:28:01.389Z,29.07
2019-06-07T13:29:01.754Z,29.14
2019-06-07T13:30:09.187Z,29.12
2019-06-07T13:31:01.561Z,29.23
2019-06-07T13:32:01.496Z,29.36
2019-06-07T13:33:02.949Z,29.47
2019-06-07T13:34:01.616Z,29.42
2019-06-07T13:35:01.634Z,29.49
2019-06-07T13:36:02.015Z,29.60
2019-06-07T13:37:01.674Z,29.64
2019-06-07T13:38:02.135Z,29.58
2019-06-07T13:39:01.758Z,29.71
2019-06-07T13:40:02.026Z,29.63
2019-06-07T13:42:01.950Z,29.73
2019-06-07T13:43:05.688Z,29.71
2019-06-07T13:44:02.077Z,29.63
2019-06-07T13:46:02.118Z,29.64
2019-06-07T13:47:02.119Z,29.64
2019-06-07T13:48:02.198Z,29.74
2019-06-07T13:49:02.479Z,29.86